Latest Weather Observations for Horsham AWS

IDV60801

Issued at 7:02 am EDT Thursday 5 March 2015 (issued every 30 minutes, with the page automatically refreshed every 10 minutes)

About weather observations | Map of weather stations | Latest weather observations for VIC | Other Formats
Station Details ID: 079100 Name: HORSHAM AERODROME Lat: -36.67 Lon: 142.17 Height: 133.8 m
Data from the previous 72 hours. | See also: Recent months at Horsham AWS
Date/Time
EDT
Temp
°C
App
Temp
°C
Dew
Point
Rel
Hum
%
Delta-T
°C
Wind Press
QNH
hPa
Press
MSL
hPa
Rain
since 9 am
mm
Dir
 
Spd
km/h
Gust
km/h
Spd
kts
Gust
kts
05/07:00am 10.2 5.1 3.3 62 3.0 SW 19 24 10 13 1017.5 1017.2 0.0
05/06:30am 11.1 6.1 3.4 59 3.4 SW 19 24 10 13 1017.4 1017.1 0.0
05/06:00am 11.8 4.7 3.8 58 3.6 SW 30 43 16 23 1017.0 1016.7 0.0
05/05:30am 12.3 4.0 4.0 57 3.8 SSW 37 50 20 27 1016.8 1016.5 0.0
05/05:00am 13.2 3.4 5.4 59 3.7 SSW 46 65 25 35 1016.3 1016.0 0.0
05/04:54am 13.2 5.2 5.6 60 3.6 SW 37 61 20 33 1016.3 1016.0 0.0
05/04:30am 13.4 5.1 6.0 61 3.5 SW 39 52 21 28 1015.9 1015.6 0.0
05/04:00am 13.8 6.2 7.6 66 3.1 SW 37 50 20 27 1015.3 1015.0 0.0
05/03:30am 14.5 7.4 8.2 66 3.2 SW 35 48 19 26 1014.9 1014.5 0.0
05/03:03am 14.8 7.7 9.4 70 2.8 SW 37 56 20 30 1014.7 1014.3 0.0
05/03:00am 14.9 7.4 9.5 70 2.8 SW 39 56 21 30 1014.7 1014.3 0.0
05/02:30am 15.2 6.9 9.3 68 3.1 WSW 43 57 23 31 1014.6 1014.2 0.0
05/02:00am 15.5 9.1 9.4 67 3.2 WSW 33 46 18 25 1014.3 1013.9 0.0
05/01:31am 14.6 5.3 10.4 76 2.2 WSW 50 67 27 36 1014.5 1014.1 0.0
05/01:30am 14.5 5.1 10.3 76 2.2 WSW 50 67 27 36 1014.5 1014.1 0.0
05/01:25am 14.5 6.5 10.5 77 2.1 WSW 43 67 23 36 1014.6 1014.2 0.0
05/01:21am 15.4 9.6 12.7 84 1.5 W 35 57 19 31 1014.2 1013.8 0.0
05/01:00am 16.2 11.1 12.0 76 2.3 W 30 43 16 23 1013.9 1013.5 0.0
05/12:30am 16.0 11.0 12.2 78 2.1 W 30 41 16 22 1014.0 1013.6 0.0
05/12:00am 15.8 10.4 12.2 79 2.0 W 32 43 17 23 1013.9 1013.6 0.0
 
Date/Time
EDT
Temp
°C
App
Temp
°C
Dew
Point
Rel
Hum
%
Delta-T
°C
Wind Press
QNH
hPa
Press
MSL
hPa
Rain
since 9 am
mm
Dir
 
Spd
km/h
Gust
km/h
Spd
kts
Gust
kts
04/11:30pm 16.4 10.8 11.6 73 2.6 W 32 43 17 23 1014.1 1013.7 0.0
04/11:00pm 16.4 11.9 11.3 72 2.8 W 26 39 14 21 1014.3 1013.9 0.0
04/10:30pm 16.5 11.5 10.8 69 3.1 W 28 37 15 20 1014.4 1014.0 0.0
04/10:00pm 17.5 11.6 10.4 63 3.8 W 32 44 17 24 1014.2 1013.8 0.0
04/09:30pm 18.5 12.3 10.1 58 4.5 W 33 43 18 23 1014.0 1013.6 0.0
04/09:00pm 19.0 12.9 9.8 55 4.9 W 32 44 17 24 1013.4 1013.1 0.0
04/08:30pm 19.2 13.1 9.7 54 5.1 W 32 43 17 23 1013.1 1012.8 0.0
04/08:00pm 19.6 13.5 9.8 53 5.3 W 32 44 17 24 1013.0 1012.7 0.0
04/07:30pm 19.9 13.5 9.5 51 5.6 W 33 44 18 24 1013.0 1012.7 0.0
04/07:00pm 21.2 14.9 9.1 46 6.5 W 32 43 17 23 1013.0 1012.7 0.0
04/06:30pm 22.4 16.5 9.2 43 7.1 WSW 30 43 16 23 1012.8 1012.5 0.0
04/05:30pm 22.5 16.7 9.3 43 7.1 W 30 39 16 21 1013.0 1012.7 0.0
04/05:00pm 22.3 16.4 9.1 43 7.1 WSW 30 44 16 24 1013.2 1012.9 0.0
04/04:30pm 23.1 17.2 9.1 41 7.6 WSW 30 44 16 24 1013.4 1013.1 0.0
04/04:00pm 23.0 17.4 8.7 40 7.7 W 28 43 15 23 1013.7 1013.3 0.0
04/03:40pm 22.8 17.1 8.5 40 7.6 W 28 46 15 25 1013.9 1013.5 0.0
04/03:30pm 22.7 16.5 8.0 39 7.8 WSW 30 43 16 23 1014.0 1013.6 0.0
04/03:03pm 23.2 17.2 8.5 39 7.9 WSW 30 46 16 25 1014.4 1014.0 0.0
04/03:00pm 22.6 17.0 8.7 41 7.4 WSW 28 41 15 22 1014.5 1014.1 0.0
04/02:30pm 22.8 17.1 8.5 40 7.6 W 28 39 15 21 1014.8 1014.4 0.0
04/02:14pm 23.1 17.3 8.0 38 8.0 WSW 28 46 15 25 1014.9 1014.5 0.0
04/02:00pm 22.8 17.7 7.8 38 7.9 WSW 24 35 13 19 1015.1 1014.8 0.0
04/01:30pm 21.9 17.3 8.1 41 7.3 W 22 37 12 20 1015.5 1015.2 0.0
04/01:00pm 20.5 15.8 7.8 44 6.6 WSW 22 39 12 21 1015.9 1015.6 0.0
04/12:30pm 21.0 16.0 8.0 43 6.8 WSW 24 32 13 17 1016.4 1016.1 0.0
04/12:00pm 19.7 15.0 7.8 46 6.1 WSW 22 35 12 19 1016.8 1016.5 0.0
04/11:30am 18.5 14.5 8.2 51 5.3 SW 19 28 10 15 1016.9 1016.6 0.0
04/11:00am 18.3 13.7 8.0 51 5.3 WSW 22 32 12 17 1017.1 1016.8 0.0
04/10:30am 17.7 12.8 8.3 54 4.8 WSW 24 35 13 19 1017.3 1017.0 0.0
04/10:00am 16.2 12.6 8.2 59 4.1 WSW 17 22 9 12 1017.4 1017.1 0.0
04/09:30am 14.6 11.9 8.8 68 3.0 WSW 13 17 7 9 1017.5 1017.2 0.0
04/09:00am 13.4 11.2 9.3 76 2.1 SW 11 13 6 7 1017.5 1017.2 0.0
04/08:30am 11.3 9.4 8.9 85 1.2 WSW 9 11 5 6 1017.3 1017.0 0.0
04/08:00am 9.3 7.4 7.7 90 0.8 WSW 7 9 4 5 1017.0 1016.7 0.0
04/07:30am 7.8 5.2 6.1 89 0.8 W 9 11 5 6 1016.6 1016.3 0.0
04/07:00am 8.5 6.1 6.8 89 0.8 WSW 9 11 5 6 1016.2 1015.9 0.0
04/06:30am 8.9 6.1 6.9 87 0.9 WSW 11 13 6 7 1016.2 1015.9 0.0
04/06:00am 9.6 6.9 7.4 86 1.1 WSW 11 13 6 7 1016.1 1015.8 0.0
04/05:30am 9.4 6.2 7.0 85 1.1 SW 13 15 7 8 1016.2 1015.9 0.0
04/05:00am 9.4 5.8 6.8 84 1.2 SW 15 19 8 10 1016.1 1015.8 0.0
04/04:30am 9.9 6.8 7.2 83 1.3 SW 13 15 7 8 1016.2 1015.9 0.0
04/04:00am 10.3 6.4 7.0 80 1.6 SW 17 19 9 10 1016.2 1015.9 0.0
04/03:30am 11.2 7.4 7.7 79 1.7 SW 17 19 9 10 1016.3 1016.0 0.0
04/03:00am 12.2 9.0 8.3 77 1.9 SW 15 19 8 10 1016.5 1016.2 0.0
04/02:30am 12.5 8.9 8.2 75 2.1 SW 17 20 9 11 1016.7 1016.4 0.0
04/02:00am 13.2 9.6 8.5 73 2.4 SSW 17 24 9 13 1016.9 1016.6 0.0
04/01:30am 12.8 9.9 8.1 73 2.3 SSW 13 17 7 9 1016.9 1016.6 0.0
04/01:00am 14.3 10.4 8.7 69 2.8 SSW 19 20 10 11 1017.0 1016.7 0.0
04/12:30am 15.8 11.5 9.5 66 3.3 SSW 22 28 12 15 1017.3 1017.0 0.0
04/12:00am 16.6 12.3 9.5 63 3.7 SSW 22 30 12 16 1017.2 1016.9 0.0
 
Date/Time
EDT
Temp
°C
App
Temp
°C
Dew
Point
Rel
Hum
%
Delta-T
°C
Wind Press
QNH
hPa
Press
MSL
hPa
Rain
since 9 am
mm
Dir
 
Spd
km/h
Gust
km/h
Spd
kts
Gust
kts
03/11:30pm 17.4 12.3 9.3 59 4.3 SW 26 33 14 18 1017.0 1016.7 0.0
03/11:00pm 18.3 12.8 9.1 55 4.8 SW 28 35 15 19 1016.9 1016.6 0.0
03/10:30pm 19.0 14.2 7.4 47 5.9 SW 22 28 12 15 1016.7 1016.4 0.0
03/10:00pm 17.9 13.5 4.8 42 6.3 SSW 17 17 9 9 1016.2 1015.9 0.0
03/09:30pm 18.3 13.8 4.1 39 6.8 SSW 17 19 9 10 1015.9 1015.6 0.0
03/09:00pm 19.2 15.1 4.2 37 7.2 SSW 15 17 8 9 1015.5 1015.2 0.0
03/08:30pm 21.0 16.5 4.1 33 8.2 SSW 17 17 9 9 1015.4 1015.1 0.0
03/08:00pm 22.8 18.4 4.8 31 9.0 SSW 17 20 9 11 1015.1 1014.8 0.0
03/07:30pm 24.6 19.3 4.9 28 10.0 SSW 22 28 12 15 1014.8 1014.4 0.0
03/07:00pm 25.4 19.5 4.0 25 10.7 SSW 24 32 13 17 1014.6 1014.2 0.0
03/06:30pm 25.9 20.7 3.8 24 11.0 SSW 20 32 11 17 1014.5 1014.1 0.0
03/06:00pm 26.5 21.4 3.1 22 11.6 S 19 28 10 15 1014.4 1014.0 0.0
03/05:30pm 26.3 20.5 2.3 21 11.7 WSW 22 33 12 18 1014.4 1014.0 0.0
03/05:00pm 27.1 21.3 2.2 20 12.2 SSW 22 33 12 18 1014.5 1014.1 0.0
03/04:30pm 26.6 22.0 1.8 20 12.0 SW 15 28 8 15 1014.7 1014.3 0.0
03/04:00pm 26.5 21.0 1.7 20 12.0 SW 20 28 11 15 1014.9 1014.5 0.0
03/03:30pm 26.2 21.2 1.5 20 11.9 WSW 17 28 9 15 1015.3 1015.0 0.0
03/03:00pm 26.2 21.1 2.8 22 11.5 SW 19 28 10 15 1015.7 1015.4 0.0
03/02:30pm 26.1 20.6 4.0 24 11.1 SW 22 37 12 20 1016.0 1015.7 0.0
03/02:00pm 24.7 20.5 3.9 26 10.3 SW 15 26 8 14 1016.2 1015.9 0.0
03/01:30pm 24.6 20.5 6.4 31 9.5 W 17 32 9 17 1016.5 1016.2 0.0
03/01:00pm 23.8 20.3 7.4 35 8.6 SW 15 24 8 13 1016.8 1016.5 0.0
03/12:30pm 23.0 19.9 7.1 36 8.3 SW 13 20 7 11 1017.4 1017.1 0.0
03/12:00pm 22.0 18.9 7.4 39 7.6 SW 13 22 7 12 1017.6 1017.3 0.0
03/11:30am 21.9 19.0 8.1 41 7.3 S 13 20 7 11 1017.8 1017.5 0.0
03/11:00am 21.2 18.3 8.1 43 6.9 SSW 13 22 7 12 1017.7 1017.4 0.0
03/10:30am 19.3 17.1 7.7 47 6.0 SSW 9 15 5 8 1017.6 1017.3 0.0
03/10:00am 18.7 16.1 7.8 49 5.6 SSW 11 19 6 10 1017.5 1017.2 0.0
03/09:30am 17.6 14.6 7.6 52 5.1 SSW 13 17 7 9 1017.3 1017.0 0.0
03/09:00am 16.3 14.6 7.5 56 4.4 SW 6 9 3 5 1017.2 1016.9 0.0
03/08:30am 15.2 12.9 7.5 60 3.8 SSW 9 11 5 6 1017.0 1016.7 0.0
03/08:00am 12.5 9.9 6.3 66 3.0 SW 9 13 5 7 1016.7 1016.4 0.0
03/07:30am 12.3 8.5 5.9 65 3.0 SE 15 17 8 9 1016.3 1016.0 0.0
03/07:00am 13.7 11.8 6.6 62 3.4 ESE 6 7 3 4 1016.1 1015.8 0.0
03/06:30am 14.2 11.6 6.1 58 3.9 SE 9 11 5 6 1015.7 1015.4 0.0
03/06:00am 14.6 12.3 5.9 56 4.2 SE 7 11 4 6 1015.5 1015.2 0.0
03/05:30am 15.6 13.0 6.3 54 4.5 ESE 9 11 5 6 1015.5 1015.2 0.0
03/05:00am 16.0 13.5 6.7 54 4.6 SE 9 9 5 5 1015.2 1014.9 0.0
03/04:30am 16.6 13.7 6.7 52 4.9 SE 11 13 6 7 1014.9 1014.5 0.0
03/04:00am 16.6 13.7 6.7 52 4.9 SSE 11 13 6 7 1015.1 1014.8 0.0
03/03:30am 17.0 13.8 6.8 51 5.1 SSE 13 15 7 8 1015.2 1014.9 0.0
03/03:00am 17.2 13.3 7.0 51 5.1 S 17 20 9 11 1015.5 1015.2 0.0
03/02:30am 17.2 13.6 6.7 50 5.2 SSW 15 19 8 10 1015.3 1015.0 0.0
03/02:00am 17.5 13.1 6.7 49 5.4 SSW 19 24 10 13 1015.7 1015.4 0.0
03/01:30am 17.7 14.1 6.9 49 5.4 SSW 15 19 8 10 1015.6 1015.3 0.0
03/01:00am 18.1 13.8 6.9 48 5.6 SSW 19 20 10 11 1015.7 1015.4 0.0
03/12:30am 18.5 15.0 7.0 47 5.8 SSW 15 17 8 9 1015.5 1015.2 0.0
03/12:00am 19.4 15.7 7.8 47 6.0 SSE 17 20 9 11 1015.2 1014.9 0.0
 
Date/Time
EDT
Temp
°C
App
Temp
°C
Dew
Point
Rel
Hum
%
Delta-T
°C
Wind Press
QNH
hPa
Press
MSL
hPa
Rain
since 9 am
mm
Dir
 
Spd
km/h
Gust
km/h
Spd
kts
Gust
kts
02/11:30pm 19.8 14.8 7.9 46 6.2 S 24 32 13 17 1015.4 1015.1 0.0
02/11:00pm 20.5 16.8 6.1 39 7.2 SSW 15 19 8 10 1015.4 1015.1 0.0
02/10:30pm 19.9 16.3 3.2 33 7.9 NNW 11 13 6 7 1015.4 1015.1 0.0
02/10:00pm 20.0 16.8 3.3 33 7.9 N 9 13 5 7 1015.2 1014.9 0.0
02/09:30pm 19.9 17.3 3.2 33 7.9 NNE 6 7 3 4 1014.7 1014.3 0.0
02/09:00pm 20.8 18.0 3.1 31 8.4 SE 7 9 4 5 1014.2 1013.8 0.0
02/08:30pm 21.5 17.8 2.2 28 9.1 SE 11 15 6 8 1014.1 1013.7 0.0
02/08:00pm 22.6 19.6 2.1 26 9.7 SE 7 11 4 6 1014.2 1013.8 0.0
02/07:30pm 24.1 22.4 1.7 23 10.6 CALM 0 0 0 0 1014.1 1013.7 0.0
02/07:00pm 24.7 22.2 1.6 22 11.0 WSW 4 9 2 5 1014.1 1013.7 0.0
02/06:30pm 24.9 21.9 1.7 22 11.1 SSE 7 13 4 7 1013.8 1013.4 0.0
02/06:00pm 25.0 22.0 1.8 22 11.1 SSE 7 13 4 7 1013.3 1013.0 0.0
02/05:30pm 24.8 21.8 1.0 21 11.2 NW 6 13 3 7 1013.3 1013.0 0.0
02/05:00pm 24.8 21.6 1.0 21 11.2 W 7 13 4 7 1014.0 1013.6 0.0
02/04:30pm 25.2 22.4 2.0 22 11.2 ENE 6 13 3 7 1013.7 1013.3 0.0
02/04:00pm 24.8 21.5 2.3 23 10.9 NE 9 17 5 9 1014.1 1013.7 0.0
02/03:30pm 24.0 20.7 2.2 24 10.4 SSE 9 19 5 10 1014.2 1013.8 0.0
02/03:00pm 24.8 21.6 2.9 24 10.7 S 9 19 5 10 1014.5 1014.1 0.0
02/02:30pm 24.3 21.6 3.6 26 10.2 W 7 11 4 6 1014.9 1014.5 0.0
02/02:00pm 23.3 20.6 3.8 28 9.6 WNW 7 13 4 7 1015.5 1015.2 0.0
02/01:30pm 22.7 19.3 3.8 29 9.2 SW 11 17 6 9 1016.0 1015.7 0.0
02/01:00pm 22.0 19.5 5.0 33 8.5 WSW 7 11 4 6 1016.1 1015.8 0.0
02/12:30pm 22.3 19.4 4.8 32 8.7 ESE 9 19 5 10 1017.0 1016.7 0.0
02/12:00pm 21.1 18.0 5.5 36 7.8 NE 11 17 6 9 1017.6 1017.3 0.0
02/11:30am 19.2 15.7 5.6 41 6.7 ENE 13 19 7 10 1017.7 1017.4 0.0
02/11:00am 18.4 14.2 5.9 44 6.2 ENE 17 24 9 13 1018.0 1017.7 0.0
02/10:30am 16.8 12.2 6.3 50 5.2 E 20 26 11 14 1018.2 1017.9 0.0
02/10:00am 16.0 11.7 7.0 55 4.5 E 19 24 10 13 1017.9 1017.6 0.0
02/09:30am 14.4 10.2 7.5 63 3.4 E 19 22 10 12 1018.1 1017.8 0.0
02/09:00am 12.9 8.4 7.1 68 2.8 E 20 26 11 14 1018.1 1017.8 0.0
02/08:30am 11.7 7.3 7.2 74 2.2 E 20 24 11 13 1017.9 1017.6 0.0
02/08:00am 10.6 6.1 7.1 79 1.7 E 20 24 11 13 1017.8 1017.5 0.0
02/07:30am 9.3 4.7 6.6 83 1.3 E 20 24 11 13 1017.5 1017.2 0.0

Other Formats:

Comma delimited format used in spreadsheet applications
http://www.bom.gov.au/fwo/IDV60801/IDV60801.95839.axf

JavaScript Object Notation format (JSON) in row-major order
http://www.bom.gov.au/fwo/IDV60801/IDV60801.95839.json